sensor_id;sensor_type;location;lat;lon;timestamp;temperature;humidity
59572;DHT22;59406;45.602;11.904;2023-04-01T00:00:44;19.50;99.90
59572;DHT22;59406;45.602;11.904;2023-04-01T00:03:11;19.50;99.90
59572;DHT22;59406;45.602;11.904;2023-04-01T00:05:37;19.50;99.90
59572;DHT22;59406;45.602;11.904;2023-04-01T00:08:03;19.50;99.90
59572;DHT22;59406;45.602;11.904;2023-04-01T00:10:29;19.50;99.90
59572;DHT22;59406;45.602;11.904;2023-04-01T00:12:55;19.40;99.90
59572;DHT22;59406;45.602;11.904;2023-04-01T00:15:21;19.50;99.90
59572;DHT22;59406;45.602;11.904;2023-04-01T00:17:47;19.40;98.40
59572;DHT22;59406;45.602;11.904;2023-04-01T00:20:13;19.50;97.40
59572;DHT22;59406;45.602;11.904;2023-04-01T00:22:40;19.50;99.60
59572;DHT22;59406;45.602;11.904;2023-04-01T00:25:07;19.50;99.90
59572;DHT22;59406;45.602;11.904;2023-04-01T00:27:33;19.50;99.90
59572;DHT22;59406;45.602;11.904;2023-04-01T00:29:59;19.50;99.90
59572;DHT22;59406;45.602;11.904;2023-04-01T00:32:25;19.40;99.10
59572;DHT22;59406;45.602;11.904;2023-04-01T00:34:52;19.40;99.20
59572;DHT22;59406;45.602;11.904;2023-04-01T00:37:20;19.40;98.70
59572;DHT22;59406;45.602;11.904;2023-04-01T00:39:47;19.40;98.20
59572;DHT22;59406;45.602;11.904;2023-04-01T00:42:13;19.40;98.50
59572;DHT22;59406;45.602;11.904;2023-04-01T00:44:39;19.50;98.90
59572;DHT22;59406;45.602;11.904;2023-04-01T00:47:05;19.40;99.20
59572;DHT22;59406;45.602;11.904;2023-04-01T00:49:40;19.40;98.70
59572;DHT22;59406;45.602;11.904;2023-04-01T00:52:11;19.40;99.50
59572;DHT22;59406;45.602;11.904;2023-04-01T00:54:38;19.40;99.90
59572;DHT22;59406;45.602;11.904;2023-04-01T00:57:15;19.40;99.90
59572;DHT22;59406;45.602;11.904;2023-04-01T00:59:46;19.40;99.90
59572;DHT22;59406;45.602;11.904;2023-04-01T01:02:14;19.40;99.90
59572;DHT22;59406;45.602;11.904;2023-04-01T01:04:40;19.30;98.50
59572;DHT22;59406;45.602;11.904;2023-04-01T01:07:17;19.40;99.20
59572;DHT22;59406;45.602;11.904;2023-04-01T01:10:24;19.40;99.90
59572;DHT22;59406;45.602;11.904;2023-04-01T01:12:58;19.40;99.90
59572;DHT22;59406;45.602;11.904;2023-04-01T01:15:49;19.30;99.90
59572;DHT22;59406;45.602;11.904;2023-04-01T01:21:28;19.30;95.30
59572;DHT22;59406;45.602;11.904;2023-04-01T01:24:11;19.30;96.00
59572;DHT22;59406;45.602;11.904;2023-04-01T01:32:29;19.30;98.20
59572;DHT22;59406;45.602;11.904;2023-04-01T01:37:56;19.30;99.90
59572;DHT22;59406;45.602;11.904;2023-04-01T01:40:26;19.30;99.90
59572;DHT22;59406;45.602;11.904;2023-04-01T01:42:57;19.30;99.90
59572;DHT22;59406;45.602;11.904;2023-04-01T01:45:26;19.20;99.90
59572;DHT22;59406;45.602;11.904;2023-04-01T01:47:54;19.20;99.90
59572;DHT22;59406;45.602;11.904;2023-04-01T01:50:21;19.20;99.90
59572;DHT22;59406;45.602;11.904;2023-04-01T01:52:48;19.30;99.90
59572;DHT22;59406;45.602;11.904;2023-04-01T01:55:46;19.30;99.90
59572;DHT22;59406;45.602;11.904;2023-04-01T02:01:00;19.30;99.90
59572;DHT22;59406;45.602;11.904;2023-04-01T02:03:30;19.30;99.90
59572;DHT22;59406;45.602;11.904;2023-04-01T02:05:59;19.20;96.00
59572;DHT22;59406;45.602;11.904;2023-04-01T02:08:34;19.30;98.50
59572;DHT22;59406;45.602;11.904;2023-04-01T02:11:07;19.20;99.90
59572;DHT22;59406;45.602;11.904;2023-04-01T02:18:53;19.20;98.30
59572;DHT22;59406;45.602;11.904;2023-04-01T02:21:22;19.20;99.30
59572;DHT22;59406;45.602;11.904;2023-04-01T02:23:50;19.20;98.40
59572;DHT22;59406;45.602;11.904;2023-04-01T02:26:18;19.20;99.40
59572;DHT22;59406;45.602;11.904;2023-04-01T02:28:46;19.20;99.90
59572;DHT22;59406;45.602;11.904;2023-04-01T02:31:14;19.20;99.60
59572;DHT22;59406;45.602;11.904;2023-04-01T02:33:40;19.20;99.90
59572;DHT22;59406;45.602;11.904;2023-04-01T02:36:13;19.20;99.30
59572;DHT22;59406;45.602;11.904;2023-04-01T02:38:41;19.20;98.90
59572;DHT22;59406;45.602;11.904;2023-04-01T02:41:07;19.20;99.50
59572;DHT22;59406;45.602;11.904;2023-04-01T02:43:33;19.20;99.90
59572;DHT22;59406;45.602;11.904;2023-04-01T02:45:59;19.20;99.90
59572;DHT22;59406;45.602;11.904;2023-04-01T02:48:25;19.10;99.90
59572;DHT22;59406;45.602;11.904;2023-04-01T02:50:51;19.10;99.90
59572;DHT22;59406;45.602;11.904;2023-04-01T02:53:17;19.20;99.60
59572;DHT22;59406;45.602;11.904;2023-04-01T02:55:43;19.10;99.30
59572;DHT22;59406;45.602;11.904;2023-04-01T02:58:10;19.10;99.90
59572;DHT22;59406;45.602;11.904;2023-04-01T03:00:37;19.10;99.90
59572;DHT22;59406;45.602;11.904;2023-04-01T03:03:02;19.10;99.90
59572;DHT22;59406;45.602;11.904;2023-04-01T03:05:29;19.10;99.90
59572;DHT22;59406;45.602;11.904;2023-04-01T03:07:55;19.00;99.90
59572;DHT22;59406;45.602;11.904;2023-04-01T03:10:21;19.10;99.90
59572;DHT22;59406;45.602;11.904;2023-04-01T03:12:47;19.10;96.70
59572;DHT22;59406;45.602;11.904;2023-04-01T03:15:13;19.10;96.50
59572;DHT22;59406;45.602;11.904;2023-04-01T03:17:42;19.10;97.40
59572;DHT22;59406;45.602;11.904;2023-04-01T03:20:09;19.10;98.00
59572;DHT22;59406;45.602;11.904;2023-04-01T03:22:36;19.10;99.90
59572;DHT22;59406;45.602;11.904;2023-04-01T03:25:04;19.10;99.90
59572;DHT22;59406;45.602;11.904;2023-04-01T03:27:30;19.10;99.90
59572;DHT22;59406;45.602;11.904;2023-04-01T03:29:55;19.10;98.40
59572;DHT22;59406;45.602;11.904;2023-04-01T03:32:21;19.10;97.40
59572;DHT22;59406;45.602;11.904;2023-04-01T03:34:47;19.10;97.90
59572;DHT22;59406;45.602;11.904;2023-04-01T03:37:13;19.00;99.20
59572;DHT22;59406;45.602;11.904;2023-04-01T03:39:40;19.10;99.90
59572;DHT22;59406;45.602;11.904;2023-04-01T03:42:05;19.10;99.90
59572;DHT22;59406;45.602;11.904;2023-04-01T03:44:33;19.10;99.90
59572;DHT22;59406;45.602;11.904;2023-04-01T03:46:59;19.00;99.90
59572;DHT22;59406;45.602;11.904;2023-04-01T03:49:26;19.00;99.90
59572;DHT22;59406;45.602;11.904;2023-04-01T03:51:52;19.00;99.90
59572;DHT22;59406;45.602;11.904;2023-04-01T03:54:18;19.00;99.90
59572;DHT22;59406;45.602;11.904;2023-04-01T03:56:46;19.10;99.90
59572;DHT22;59406;45.602;11.904;2023-04-01T03:59:12;19.00;99.90
59572;DHT22;59406;45.602;11.904;2023-04-01T04:01:38;19.00;99.90
59572;DHT22;59406;45.602;11.904;2023-04-01T04:04:04;19.00;99.90
59572;DHT22;59406;45.602;11.904;2023-04-01T04:06:30;19.00;99.90
59572;DHT22;59406;45.602;11.904;2023-04-01T04:08:56;19.00;99.90
59572;DHT22;59406;45.602;11.904;2023-04-01T04:11:23;19.00;99.90
59572;DHT22;59406;45.602;11.904;2023-04-01T04:13:49;19.00;99.90
59572;DHT22;59406;45.602;11.904;2023-04-01T04:16:16;19.00;99.90
59572;DHT22;59406;45.602;11.904;2023-04-01T04:18:43;18.90;99.90
59572;DHT22;59406;45.602;11.904;2023-04-01T04:21:13;19.00;99.90
59572;DHT22;59406;45.602;11.904;2023-04-01T04:23:39;18.90;96.30
59572;DHT22;59406;45.602;11.904;2023-04-01T04:26:08;18.90;95.50
59572;DHT22;59406;45.602;11.904;2023-04-01T04:28:34;19.00;95.20
59572;DHT22;59406;45.602;11.904;2023-04-01T04:31:01;18.90;95.50
59572;DHT22;59406;45.602;11.904;2023-04-01T04:33:27;19.00;98.20
59572;DHT22;59406;45.602;11.904;2023-04-01T04:35:58;18.90;97.60
59572;DHT22;59406;45.602;11.904;2023-04-01T04:38:25;18.90;97.70
59572;DHT22;59406;45.602;11.904;2023-04-01T04:40:51;18.90;96.00
59572;DHT22;59406;45.602;11.904;2023-04-01T04:43:18;18.90;97.30
59572;DHT22;59406;45.602;11.904;2023-04-01T04:45:44;18.90;99.30
59572;DHT22;59406;45.602;11.904;2023-04-01T04:48:12;18.80;96.20
59572;DHT22;59406;45.602;11.904;2023-04-01T04:50:50;18.80;98.50
59572;DHT22;59406;45.602;11.904;2023-04-01T04:53:18;18.80;99.90
59572;DHT22;59406;45.602;11.904;2023-04-01T04:55:49;18.90;95.60
59572;DHT22;59406;45.602;11.904;2023-04-01T04:58:15;18.80;98.70
59572;DHT22;59406;45.602;11.904;2023-04-01T05:00:41;18.90;99.80
59572;DHT22;59406;45.602;11.904;2023-04-01T05:03:08;18.90;99.90
59572;DHT22;59406;45.602;11.904;2023-04-01T05:05:34;18.80;98.70
59572;DHT22;59406;45.602;11.904;2023-04-01T05:08:00;18.80;99.90
59572;DHT22;59406;45.602;11.904;2023-04-01T05:10:27;18.80;99.90
59572;DHT22;59406;45.602;11.904;2023-04-01T05:12:52;18.80;99.90
59572;DHT22;59406;45.602;11.904;2023-04-01T05:15:18;18.80;99.90
59572;DHT22;59406;45.602;11.904;2023-04-01T05:17:44;18.80;99.90
59572;DHT22;59406;45.602;11.904;2023-04-01T05:20:12;18.80;99.90
59572;DHT22;59406;45.602;11.904;2023-04-01T05:22:39;18.90;99.90
59572;DHT22;59406;45.602;11.904;2023-04-01T05:25:05;18.80;99.90
59572;DHT22;59406;45.602;11.904;2023-04-01T05:27:31;18.80;99.90
59572;DHT22;59406;45.602;11.904;2023-04-01T05:29:57;18.80;99.90
59572;DHT22;59406;45.602;11.904;2023-04-01T05:32:23;18.90;99.90
59572;DHT22;59406;45.602;11.904;2023-04-01T05:34:53;18.90;99.90
59572;DHT22;59406;45.602;11.904;2023-04-01T05:37:19;18.90;98.50
59572;DHT22;59406;45.602;11.904;2023-04-01T05:39:45;18.90;96.00
59572;DHT22;59406;45.602;11.904;2023-04-01T05:42:11;18.90;94.60
59572;DHT22;59406;45.602;11.904;2023-04-01T05:44:37;18.90;93.70
59572;DHT22;59406;45.602;11.904;2023-04-01T05:47:03;19.00;95.00
59572;DHT22;59406;45.602;11.904;2023-04-01T05:49:29;19.00;95.00
59572;DHT22;59406;45.602;11.904;2023-04-01T05:51:56;19.10;96.80
59572;DHT22;59406;45.602;11.904;2023-04-01T05:54:22;19.10;97.60
59572;DHT22;59406;45.602;11.904;2023-04-01T05:56:48;19.10;97.80
59572;DHT22;59406;45.602;11.904;2023-04-01T05:59:14;19.20;97.80
59572;DHT22;59406;45.602;11.904;2023-04-01T06:01:40;19.20;97.80
59572;DHT22;59406;45.602;11.904;2023-04-01T06:04:06;19.40;97.10
59572;DHT22;59406;45.602;11.904;2023-04-01T06:06:37;19.40;96.50
59572;DHT22;59406;45.602;11.904;2023-04-01T06:09:27;19.50;95.80
59572;DHT22;59406;45.602;11.904;2023-04-01T06:26:25;19.60;94.90
59572;DHT22;59406;45.602;11.904;2023-04-01T06:32:09;19.50;95.40
59572;DHT22;59406;45.602;11.904;2023-04-01T06:42:56;19.80;92.50
59572;DHT22;59406;45.602;11.904;2023-04-01T06:48:38;20.50;87.10
59572;DHT22;59406;45.602;11.904;2023-04-01T06:51:23;20.80;85.00
59572;DHT22;59406;45.602;11.904;2023-04-01T06:54:04;21.00;82.00
59572;DHT22;59406;45.602;11.904;2023-04-01T06:56:32;21.30;81.10
59572;DHT22;59406;45.602;11.904;2023-04-01T06:59:12;21.50;80.70
59572;DHT22;59406;45.602;11.904;2023-04-01T07:01:49;21.50;79.80
59572;DHT22;59406;45.602;11.904;2023-04-01T07:06:50;22.10;78.00
59572;DHT22;59406;45.602;11.904;2023-04-01T07:09:32;22.50;76.80
59572;DHT22;59406;45.602;11.904;2023-04-01T07:12:06;22.70;75.60
59572;DHT22;59406;45.602;11.904;2023-04-01T07:14:37;22.90;75.50
59572;DHT22;59406;45.602;11.904;2023-04-01T07:17:15;22.80;75.40
59572;DHT22;59406;45.602;11.904;2023-04-01T07:22:32;22.40;76.20
59572;DHT22;59406;45.602;11.904;2023-04-01T07:25:05;22.20;76.10
59572;DHT22;59406;45.602;11.904;2023-04-01T07:27:36;21.90;77.30
59572;DHT22;59406;45.602;11.904;2023-04-01T07:30:06;21.70;78.60
59572;DHT22;59406;45.602;11.904;2023-04-01T07:32:45;21.60;78.90
59572;DHT22;59406;45.602;11.904;2023-04-01T07:35:30;21.40;79.20
59572;DHT22;59406;45.602;11.904;2023-04-01T07:38:10;21.30;78.10
59572;DHT22;59406;45.602;11.904;2023-04-01T07:43:54;21.10;78.20
59572;DHT22;59406;45.602;11.904;2023-04-01T07:51:45;20.80;81.50
59572;DHT22;59406;45.602;11.904;2023-04-01T07:57:11;20.70;81.90
59572;DHT22;59406;45.602;11.904;2023-04-01T08:00:06;20.70;83.60
59572;DHT22;59406;45.602;11.904;2023-04-01T08:08:13;20.60;82.90
59572;DHT22;59406;45.602;11.904;2023-04-01T08:16:44;20.70;81.90
59572;DHT22;59406;45.602;11.904;2023-04-01T08:21:56;20.60;80.80
59572;DHT22;59406;45.602;11.904;2023-04-01T08:24:42;20.60;82.00
59572;DHT22;59406;45.602;11.904;2023-04-01T08:27:34;20.50;82.40
59572;DHT22;59406;45.602;11.904;2023-04-01T08:30:17;20.50;81.40
59572;DHT22;59406;45.602;11.904;2023-04-01T08:33:19;20.50;81.00
59572;DHT22;59406;45.602;11.904;2023-04-01T08:35:53;20.60;83.70
59572;DHT22;59406;45.602;11.904;2023-04-01T08:56:17;20.50;81.80
59572;DHT22;59406;45.602;11.904;2023-04-01T09:04:52;20.40;81.90
59572;DHT22;59406;45.602;11.904;2023-04-01T09:07:43;20.50;83.40
59572;DHT22;59406;45.602;11.904;2023-04-01T09:10:39;20.50;81.80
59572;DHT22;59406;45.602;11.904;2023-04-01T09:13:33;20.40;80.60
59572;DHT22;59406;45.602;11.904;2023-04-01T09:19:05;20.50;82.40
59572;DHT22;59406;45.602;11.904;2023-04-01T09:21:52;20.50;81.70
59572;DHT22;59406;45.602;11.904;2023-04-01T09:25:06;20.40;81.40
59572;DHT22;59406;45.602;11.904;2023-04-01T09:27:35;20.50;83.10
59572;DHT22;59406;45.602;11.904;2023-04-01T09:30:33;20.40;83.80
59572;DHT22;59406;45.602;11.904;2023-04-01T09:35:47;20.40;82.90
59572;DHT22;59406;45.602;11.904;2023-04-01T09:41:30;20.50;81.60
59572;DHT22;59406;45.602;11.904;2023-04-01T09:44:11;20.40;83.70
59572;DHT22;59406;45.602;11.904;2023-04-01T10:01:07;20.50;81.80
59572;DHT22;59406;45.602;11.904;2023-04-01T10:04:05;20.60;84.00
59572;DHT22;59406;45.602;11.904;2023-04-01T10:07:11;20.50;81.30
59572;DHT22;59406;45.602;11.904;2023-04-01T10:10:06;20.50;81.00
59572;DHT22;59406;45.602;11.904;2023-04-01T10:16:14;20.50;79.50
59572;DHT22;59406;45.602;11.904;2023-04-01T10:24:56;20.50;80.20
59572;DHT22;59406;45.602;11.904;2023-04-01T10:33:16;20.50;81.50
59572;DHT22;59406;45.602;11.904;2023-04-01T10:54:54;20.40;82.80
59572;DHT22;59406;45.602;11.904;2023-04-01T11:34:51;20.50;83.30
59572;DHT22;59406;45.602;11.904;2023-04-01T11:45:36;20.50;81.50
59572;DHT22;59406;45.602;11.904;2023-04-01T11:50:58;20.40;84.00
59572;DHT22;59406;45.602;11.904;2023-04-01T12:10:55;20.40;81.90
59572;DHT22;59406;45.602;11.904;2023-04-01T12:13:43;20.50;83.50
59572;DHT22;59406;45.602;11.904;2023-04-01T12:16:44;20.40;84.50
59572;DHT22;59406;45.602;11.904;2023-04-01T12:40:47;20.60;84.00
59572;DHT22;59406;45.602;11.904;2023-04-01T12:43:41;20.50;83.80
59572;DHT22;59406;45.602;11.904;2023-04-01T12:51:50;20.50;84.50
59572;DHT22;59406;45.602;11.904;2023-04-01T12:57:03;20.60;85.50
59572;DHT22;59406;45.602;11.904;2023-04-01T13:05:12;20.50;85.60
59572;DHT22;59406;45.602;11.904;2023-04-01T13:13:26;20.70;84.50
59572;DHT22;59406;45.602;11.904;2023-04-01T13:16:03;20.60;85.50
59572;DHT22;59406;45.602;11.904;2023-04-01T13:22:00;20.50;84.30
59572;DHT22;59406;45.602;11.904;2023-04-01T13:32:41;20.70;86.00
59572;DHT22;59406;45.602;11.904;2023-04-01T13:43:21;20.60;86.60
59572;DHT22;59406;45.602;11.904;2023-04-01T13:54:43;20.70;86.50
59572;DHT22;59406;45.602;11.904;2023-04-01T14:06:06;20.70;86.70
59572;DHT22;59406;45.602;11.904;2023-04-01T14:11:13;20.70;86.60
59572;DHT22;59406;45.602;11.904;2023-04-01T14:25:18;20.70;86.70
59572;DHT22;59406;45.602;11.904;2023-04-01T14:31:10;20.70;85.20
59572;DHT22;59406;45.602;11.904;2023-04-01T14:34:00;20.70;86.50
59572;DHT22;59406;45.602;11.904;2023-04-01T14:36:47;20.70;86.60
59572;DHT22;59406;45.602;11.904;2023-04-01T14:42:18;20.70;86.60
59572;DHT22;59406;45.602;11.904;2023-04-01T14:45:21;20.70;86.70
59572;DHT22;59406;45.602;11.904;2023-04-01T14:48:04;20.80;86.70
59572;DHT22;59406;45.602;11.904;2023-04-01T14:50:46;20.70;86.70
59572;DHT22;59406;45.602;11.904;2023-04-01T14:55:53;20.80;86.70
59572;DHT22;59406;45.602;11.904;2023-04-01T14:58:21;20.70;85.10
59572;DHT22;59406;45.602;11.904;2023-04-01T15:00:59;20.70;86.40
59572;DHT22;59406;45.602;11.904;2023-04-01T15:30:52;20.70;86.00
59572;DHT22;59406;45.602;11.904;2023-04-01T15:36:33;20.70;82.60
59572;DHT22;59406;45.602;11.904;2023-04-01T15:44:46;20.70;84.20
59572;DHT22;59406;45.602;11.904;2023-04-01T16:04:14;20.70;83.00
59572;DHT22;59406;45.602;11.904;2023-04-01T16:23:15;20.70;82.00
59572;DHT22;59406;45.602;11.904;2023-04-01T16:29:12;20.70;80.80
59572;DHT22;59406;45.602;11.904;2023-04-01T16:34:49;20.80;83.40
59572;DHT22;59406;45.602;11.904;2023-04-01T16:49:00;20.70;82.10
59572;DHT22;59406;45.602;11.904;2023-04-01T16:51:48;20.80;81.50
59572;DHT22;59406;45.602;11.904;2023-04-01T16:54:46;20.70;83.90
59572;DHT22;59406;45.602;11.904;2023-04-01T17:02:49;20.80;85.50
59572;DHT22;59406;45.602;11.904;2023-04-01T17:05:18;20.80;85.20
59572;DHT22;59406;45.602;11.904;2023-04-01T17:10:48;20.70;86.10
59572;DHT22;59406;45.602;11.904;2023-04-01T17:16:10;20.80;85.50
59572;DHT22;59406;45.602;11.904;2023-04-01T17:21:46;20.70;84.70
59572;DHT22;59406;45.602;11.904;2023-04-01T17:33:27;20.80;86.70
59572;DHT22;59406;45.602;11.904;2023-04-01T17:38:56;20.80;86.50
59572;DHT22;59406;45.602;11.904;2023-04-01T17:42:04;20.80;86.80
59572;DHT22;59406;45.602;11.904;2023-04-01T17:52:48;20.70;85.10
59572;DHT22;59406;45.602;11.904;2023-04-01T17:58:14;20.70;86.00
59572;DHT22;59406;45.602;11.904;2023-04-01T18:25:35;20.60;86.60
59572;DHT22;59406;45.602;11.904;2023-04-01T18:30:39;20.70;86.50
59572;DHT22;59406;45.602;11.904;2023-04-01T18:36:24;20.70;86.50
59572;DHT22;59406;45.602;11.904;2023-04-01T18:39:07;20.70;85.70
59572;DHT22;59406;45.602;11.904;2023-04-01T18:44:22;20.60;85.80
59572;DHT22;59406;45.602;11.904;2023-04-01T18:47:15;20.60;86.40
59572;DHT22;59406;45.602;11.904;2023-04-01T18:52:43;20.60;85.50
59572;DHT22;59406;45.602;11.904;2023-04-01T18:55:32;20.70;86.40
59572;DHT22;59406;45.602;11.904;2023-04-01T19:04:23;20.60;87.30
59572;DHT22;59406;45.602;11.904;2023-04-01T19:06:56;20.60;88.00
59572;DHT22;59406;45.602;11.904;2023-04-01T19:09:27;20.70;87.80
59572;DHT22;59406;45.602;11.904;2023-04-01T19:12:03;20.70;87.50
59572;DHT22;59406;45.602;11.904;2023-04-01T19:23:31;20.70;91.30
59572;DHT22;59406;45.602;11.904;2023-04-01T19:26:20;20.80;91.80
59572;DHT22;59406;45.602;11.904;2023-04-01T19:29:16;20.70;91.80
59572;DHT22;59406;45.602;11.904;2023-04-01T19:42:54;20.70;92.10
59572;DHT22;59406;45.602;11.904;2023-04-01T19:45:44;20.70;91.70
59572;DHT22;59406;45.602;11.904;2023-04-01T19:53:29;20.70;91.00
59572;DHT22;59406;45.602;11.904;2023-04-01T19:56:22;20.70;92.00
59572;DHT22;59406;45.602;11.904;2023-04-01T19:59:16;20.70;91.90
59572;DHT22;59406;45.602;11.904;2023-04-01T20:01:50;20.70;92.60
59572;DHT22;59406;45.602;11.904;2023-04-01T20:05:03;20.80;91.80
59572;DHT22;59406;45.602;11.904;2023-04-01T20:10:08;20.70;92.20
59572;DHT22;59406;45.602;11.904;2023-04-01T20:15:38;20.70;92.10
59572;DHT22;59406;45.602;11.904;2023-04-01T20:18:25;20.70;91.60
59572;DHT22;59406;45.602;11.904;2023-04-01T20:21:00;20.70;92.30
59572;DHT22;59406;45.602;11.904;2023-04-01T20:26:06;20.70;91.60
59572;DHT22;59406;45.602;11.904;2023-04-01T20:28:47;20.70;91.80
59572;DHT22;59406;45.602;11.904;2023-04-01T20:31:26;20.70;92.00
59572;DHT22;59406;45.602;11.904;2023-04-01T21:12:55;20.60;91.40
59572;DHT22;59406;45.602;11.904;2023-04-01T21:23:51;20.70;91.10
59572;DHT22;59406;45.602;11.904;2023-04-01T21:26:25;20.60;90.90
59572;DHT22;59406;45.602;11.904;2023-04-01T21:37:41;20.70;91.20
59572;DHT22;59406;45.602;11.904;2023-04-01T21:48:21;20.70;90.20
59572;DHT22;59406;45.602;11.904;2023-04-01T21:51:17;20.70;89.70
59572;DHT22;59406;45.602;11.904;2023-04-01T22:07:25;20.60;88.40
59572;DHT22;59406;45.602;11.904;2023-04-01T22:12:41;20.50;88.40
59572;DHT22;59406;45.602;11.904;2023-04-01T22:20:30;20.60;89.30
59572;DHT22;59406;45.602;11.904;2023-04-01T22:28:11;20.50;89.50
59572;DHT22;59406;45.602;11.904;2023-04-01T22:30:52;20.60;90.00
59572;DHT22;59406;45.602;11.904;2023-04-01T22:36:45;20.50;90.50
59572;DHT22;59406;45.602;11.904;2023-04-01T22:39:10;20.60;91.00
59572;DHT22;59406;45.602;11.904;2023-04-01T22:44:33;20.60;90.20
59572;DHT22;59406;45.602;11.904;2023-04-01T22:49:57;20.60;90.30
59572;DHT22;59406;45.602;11.904;2023-04-01T22:52:38;20.60;90.60
59572;DHT22;59406;45.602;11.904;2023-04-01T22:58:26;20.60;90.80
59572;DHT22;59406;45.602;11.904;2023-04-01T23:00:59;20.60;91.00
59572;DHT22;59406;45.602;11.904;2023-04-01T23:03:35;20.50;90.60
59572;DHT22;59406;45.602;11.904;2023-04-01T23:06:06;20.60;90.70
59572;DHT22;59406;45.602;11.904;2023-04-01T23:11:16;20.50;90.70
59572;DHT22;59406;45.602;11.904;2023-04-01T23:13:55;20.50;90.40
59572;DHT22;59406;45.602;11.904;2023-04-01T23:16:28;20.50;88.90
59572;DHT22;59406;45.602;11.904;2023-04-01T23:19:18;20.50;89.10
59572;DHT22;59406;45.602;11.904;2023-04-01T23:24:36;20.50;90.20
59572;DHT22;59406;45.602;11.904;2023-04-01T23:27:12;20.60;90.70
59572;DHT22;59406;45.602;11.904;2023-04-01T23:29:42;20.50;90.80
59572;DHT22;59406;45.602;11.904;2023-04-01T23:32:19;20.60;90.60
59572;DHT22;59406;45.602;11.904;2023-04-01T23:34:50;20.60;90.90
59572;DHT22;59406;45.602;11.904;2023-04-01T23:37:17;20.50;90.50
59572;DHT22;59406;45.602;11.904;2023-04-01T23:39:58;20.50;89.90
59572;DHT22;59406;45.602;11.904;2023-04-01T23:42:39;20.50;89.60
59572;DHT22;59406;45.602;11.904;2023-04-01T23:45:14;20.50;89.60
59572;DHT22;59406;45.602;11.904;2023-04-01T23:47:43;20.50;90.30
59572;DHT22;59406;45.602;11.904;2023-04-01T23:50:12;20.50;90.00
59572;DHT22;59406;45.602;11.904;2023-04-01T23:52:43;20.50;89.40
59572;DHT22;59406;45.602;11.904;2023-04-01T23:57:40;20.40;88.80
